Mexico City, Mexico

3:05 PM CDT on August 31, 2015 (GMT -0500)
Napoles Norte | | Change Station
CLOSE
Current Station
Personal Weather Station
Location: Ciudad De México, DISTRITO FEDERAL
Elevation: 7385 ft
Nearby Weather Stations

Elev 7385 ft 19.40 °N, 99.17 °W | Updated 13 seconds ago

Overcast
Overcast
70.7 °F
Feels Like 77 °F
N
0.0
Wind Variable Wind from WNW

Today
High -- | Low -- °F
--% Chance of Precip.
Yesterday
High -- | Low -- °F
Precip. -- in
7:21 AM 7:52 PM
Waning Gibbous, 94% visible
Pressure 30.32 in
Visibility 6.0 miles
Clouds Mostly Cloudy 2000 ft
Overcast 8000 ft
Heat Index 77 °F
Dew Point 52 °F
Humidity 50%
Rainfall 0.00 in
Snow Depth Not available.
UV 4 out of 12
Pollen Not available.
Air Quality Not available.
Flu Activity Not available.
SPECI MMMX 312000Z 12017KT 6SM BKN020CB OVC080 20/11 A3032 NOSIG RMK 8/36/ HZY PCPN E
Pressure 30.32 in
Visibility 6.0 miles
Clouds Mostly Cloudy 2000 ft
Overcast 8000 ft
Heat Index 77 °F
Dew Point 52 °F
Humidity 50%
Rainfall 0.00 in
Snow Depth Not available.
UV 4 out of 12
Pollen Not available.
Air Quality Not available.
Flu Activity Not available.
SPECI MMMX 312000Z 12017KT 6SM BKN020CB OVC080 20/11 A3032 NOSIG RMK 8/36/ HZY PCPN E

10-Day Weather Forecast

×

Almanac

Astronomy

Aug. 31, 2015 Rise Set
Actual Time
Civil Twilight
Nautical Twilight
Astronomical Twilight
Moon
Length of Visible Light
Length of Day
Tomorrow will be .
, % of the Moon is Illuminated

Today's Extremes

Country Highs Country Lows

Community

WunderPhotos

Upload Photos

1,851,351 photos uploaded!

WunderBlogs® & News

Nearby

Air Quality

  Air Quality AQ Index Pollutant
Not available.

Snow Depth

Station Depth Elevation

Earthquake Activity

City Distance Mag. Time & Date
Minimum magnitude displayed is 2.5.

Coastal Water Temperatures

Place Temperature

Stations

Nearby Weather Stations

Station Location Temp. Windchill Dew Point Humidity Wind Precip. Elev Updated Type